Últimos sismos

UTC
MagnitudMag. Fecha y hora Epicentro localización: latitud, longitud loc.: lat., long. ProfundidadProf.
4.1 2018-12-15    16:00:42 8 km al SUROESTE de CD IXTEPEC, OAX: 16.51°, -95.15° 72 km
4.3 2018-12-15    13:26:04 27 km al SUR de CINTALAPA, CHIS: 16.45°, -93.78° 139 km
4.0 2018-12-15    08:37:01 27 km al NORTE de IXTLAN DEL RIO, NAY: 21.28°, -104.34° 36 km
3.3 2018-12-15    05:05:47 24 km al NORTE de MANZANILLO, COL: 19.27°, -104.27° 11 km
3.5 2018-12-15    04:59:17 8 km al SUROESTE de PINOTEPA NACIONAL, OAX: 16.29°, -98.11° 10 km
3.1 2018-12-15    04:58:21 12 km al SURESTE de PINOTEPA NACIONAL, OAX: 16.30°, -97.95° 2 km
4.1 2018-12-15    04:21:05 22 km al NOROESTE de HUIXTLA, CHIS: 15.33°, -92.52° 140 km
3.7 2018-12-15    04:19:47 26 km al SURESTE de ATOYAC DE ALVAREZ, GRO: 16.99°, -100.35° 18 km
3.7 2018-12-15    04:08:09 19 km al OESTE de CD ALTAMIRANO, GRO: 18.40°, -100.85° 32 km
3.5 2018-12-15    04:07:07 7 km al NORESTE de PINOTEPA NACIONAL, OAX: 16.36°, -97.99° 14 km
3.3 2018-12-15    03:25:09 9 km al SURESTE de PINOTEPA NACIONAL, OAX: 16.27°, -98.00° 5 km
3.5 2018-12-15    03:23:26 23 km al ESTE de PINOTEPA NACIONAL, OAX: 16.33°, -97.84° 2 km
3.7 2018-12-15    03:16:58 53 km al SUR de SALINA CRUZ, OAX: 15.71°, -95.25° 6 km
3.6 2018-12-15    03:11:18 46 km al ESTE de MIAHUATLAN, OAX: 16.43°, -96.17° 68 km
3.8 2018-12-15    03:06:38 11 km al SUROESTE de PINOTEPA NACIONAL, OAX: 16.25°, -98.10° 6 km
3.7 2018-12-15    02:39:20 70 km al SUROESTE de CIHUATLAN, JAL: 19.00°, -105.18° 16 km
3.9 2018-12-15    02:33:54 84 km al SUROESTE de CIHUATLAN, JAL: 19.00°, -105.32° 16 km
3.5 2018-12-15    02:19:07 72 km al NORESTE de SANTA ROSALIA, BCS: 27.52°, -111.57° 15 km
3.5 2018-12-15    01:05:54 19 km al SURESTE de SALINA CRUZ, OAX: 16.05°, -95.08° 10 km
3.9 2018-12-15    00:59:10 41 km al ESTE de XALISCO, NAY: 21.39°, -104.51° 56 km
3.5 2018-12-15    00:58:19 34 km al NORTE de IXTLAN DEL RIO, NAY: 21.34°, -104.31° 42 km
3.6 2018-12-15    00:55:42 129 km al SUROESTE de COALCOMAN, MICH: 17.65°, -103.49° 2 km
3.7 2018-12-15    00:51:20 31 km al NORESTE de IXTLAN DEL RIO, NAY: 21.29°, -104.25° 21 km
3.7 2018-12-15    00:46:47 35 km al NORTE de ZIMAPAN, HGO: 21.05°, -99.37° 5 km
3.2 2018-12-15    00:40:08 9 km al SUR de PINOTEPA NACIONAL, OAX: 16.26°, -98.05° 5 km
3.7 2018-12-15    00:32:06 29 km al NORTE de IXTLAN DEL RIO, NAY: 21.29°, -104.38° 50 km
3.4 2018-12-15    00:18:05 29 km al SUR de OMETEPEC, GRO: 16.43°, -98.45° 29 km
3.8 2018-12-15    00:06:19 10 km al SUR de PINOTEPA NACIONAL, OAX: 16.26°, -98.06° 4 km
3.4 2018-12-15    00:04:46 50 km al SUROESTE de OMETEPEC, GRO: 16.25°, -98.56° 17 km
3.3 2018-12-15    00:04:46 36 km al SUROESTE de OMETEPEC, GRO: 16.40°, -98.58° 5 km
3.5 2018-12-15    00:04:19 14 km al SURESTE de SALINA CRUZ, OAX: 16.11°, -95.09° 7 km
3.3 2018-12-14    23:36:51 15 km al SURESTE de PINOTEPA NACIONAL, OAX: 16.29°, -97.92° 31 km
3.5 2018-12-14    23:29:00 19 km al SURESTE de SAN MARCOS, GRO: 16.72°, -99.23° 14 km
3.6 2018-12-14    23:11:22 26 km al SURESTE de TLACOLULA, OAX: 16.77°, -96.33° 62 km
3.3 2018-12-14    23:05:31 18 km al NORESTE de PINOTEPA NACIONAL, OAX: 16.38°, -97.89° 2 km
3.5 2018-12-14    22:56:27 21 km al SURESTE de SAN MARCOS, GRO: 16.73°, -99.21° 16 km
4.1 2018-12-14    22:46:20 193 km al SUROESTE de MAPASTEPEC, CHIS: 13.96°, -93.83° 16 km
3.8 2018-12-14    22:31:12 12 km al ESTE de S BLAS ATEMPA, OAX: 16.32°, -95.11° 31 km
3.4 2018-12-14    22:28:32 36 km al SUR de TEPELMEME, OAX: 17.56°, -97.42° 73 km
3.3 2018-12-14    22:20:39 29 km al NORESTE de MANZANILLO, COL: 19.27°, -104.18° 61 km
3.6 2018-12-14    22:18:27 14 km al NORESTE de UNION HIDALGO, OAX: 16.56°, -94.73° 99 km
3.1 2018-12-14    22:15:50 23 km al SUR de CIHUATLAN, JAL: 19.04°, -104.59° 5 km
3.4 2018-12-14    22:14:28 5 km al NORESTE de COYUCA DE BENITEZ, GRO: 17.03°, -100.05° 48 km
3.8 2018-12-14    22:07:55 163 km al SUROESTE de CIHUATLAN, JAL: 18.44°, -105.86° 11 km
3.3 2018-12-14    22:05:37 23 km al OESTE de PINOTEPA NACIONAL, OAX: 16.30°, -98.26° 11 km
3.5 2018-12-14    21:57:01 110 km al SUROESTE de RIO GRANDE, OAX: 15.28°, -98.13° 16 km
3.3 2018-12-14    20:52:45 11 km al SUROESTE de PINOTEPA NACIONAL, OAX: 16.24°, -98.08° 12 km
3.4 2018-12-14    20:18:25 24 km al SUROESTE de MANZANILLO, COL: 18.88°, -104.46° 11 km
3.7 2018-12-14    20:01:15 82 km al SURESTE de SALINA CRUZ, OAX: 15.48°, -94.93° 81 km
3.6 2018-12-14    18:47:25 26 km al NOROESTE de RIO GRANDE, OAX: 16.20°, -97.59° 19 km
3.4 2018-12-14    18:38:33 71 km al NORESTE de MATIAS ROMERO, OAX: 17.19°, -94.46° 128 km
3.1 2018-12-14    18:18:26 22 km al OESTE de PINOTEPA NACIONAL, OAX: 16.37°, -98.25° 24 km
3.2 2018-12-14    17:33:16 44 km al SUROESTE de OMETEPEC, GRO: 16.31°, -98.53° 6 km
3.3 2018-12-14    17:22:46 43 km al SUR de TECOMAN, COL: 18.53°, -103.79° 43 km
3.7 2018-12-14    17:09:37 67 km al OESTE de MATIAS ROMERO, OAX: 16.86°, -95.67° 10 km
3.7 2018-12-14    16:40:16 27 km al NOROESTE de CD IXTEPEC, OAX: 16.68°, -95.32° 16 km
3.4 2018-12-14    16:38:48 13 km al NOROESTE de SALINA CRUZ, OAX: 16.22°, -95.32° 59 km
3.1 2018-12-14    16:14:44 8 km al SURESTE de PINOTEPA NACIONAL, OAX: 16.30°, -97.99° 2 km
3.7 2018-12-14    15:59:57 4 km al NOROESTE de UNION HIDALGO, OAX: 16.50°, -94.86° 23 km
3.5 2018-12-14    15:39:35 3 km al OESTE de TECOMAN, COL: 18.90°, -103.90° 2 km
3.1 2018-12-14    15:19:34 14 km al SUR de PINOTEPA NACIONAL, OAX: 16.22°, -98.07° 8 km
3.7 2018-12-14    15:11:38 16 km al SUR de PINOTEPA NACIONAL, OAX: 16.19°, -98.05° 9 km
3.4 2018-12-14    15:04:36 19 km al SURESTE de TLAPA, GRO: 17.47°, -98.42° 56 km
3.4 2018-12-14    13:58:13 10 km al SURESTE de PINOTEPA NACIONAL, OAX: 16.26°, -98.02° 2 km
3.6 2018-12-14    13:33:11 32 km al NOROESTE de COQUIMATLAN, COL: 19.33°, -104.08° 10 km
3.8 2018-12-14    13:27:54 120 km al SURESTE de SALINA CRUZ, OAX: 15.30°, -94.55° 20 km
3.1 2018-12-14    13:20:15 12 km al SUR de PINOTEPA NACIONAL, OAX: 16.24°, -98.07° 11 km
3.2 2018-12-14    12:37:45 23 km al SURESTE de OMETEPEC, GRO: 16.49°, -98.34° 16 km
3.3 2018-12-14    12:19:03 24 km al NOROESTE de PINOTEPA NACIONAL, OAX: 16.45°, -98.25° 9 km
3.5 2018-12-14    11:29:00 24 km al NORESTE de PINOTEPA NACIONAL, OAX: 16.54°, -97.97° 39 km
4.0 2018-12-14    11:10:16 9 km al SUROESTE de PINOTEPA NACIONAL, OAX: 16.28°, -98.11° 12 km
4.2 2018-12-14    11:01:38 18 km al NOROESTE de ARRIAGA , CHIS: 16.36°, -94.00° 116 km
3.3 2018-12-14    10:58:20 20 km al NORESTE de PUERTO ESCONDIDO, OAX: 16.03°, -97.00° 23 km
3.6 2018-12-14    10:57:29 16 km al SUROESTE de PINOTEPA NACIONAL, OAX: 16.20°, -98.10° 3 km
3.4 2018-12-14    10:54:49 32 km al NOROESTE de SAN MARCOS, GRO: 17.03°, -99.57° 31 km
3.8 2018-12-14    10:50:22 37 km al SUR de SALINA CRUZ, OAX: 15.85°, -95.16° 11 km
3.6 2018-12-14    10:44:11 25 km al SUROESTE de OMETEPEC, GRO: 16.50°, -98.55° 27 km
3.6 2018-12-14    10:41:10 22 km al ESTE de MATIAS ROMERO, OAX: 16.89°, -94.84° 73 km
3.8 2018-12-14    10:14:52 90 km al SURESTE de SALINA CRUZ, OAX: 15.44°, -94.85° 15 km
3.7 2018-12-14    10:11:43 27 km al NOROESTE de VILLA DE ALVAREZ, COL: 19.45°, -103.91° 34 km
3.9 2018-12-14    10:10:34 111 km al SURESTE de SALINA CRUZ, OAX: 15.33°, -94.66° 16 km
3.6 2018-12-14    10:07:36 18 km al SURESTE de PINOTEPA NACIONAL, OAX: 16.26°, -97.90° 16 km
3.8 2018-12-14    09:29:07 128 km al SURESTE de SALINA CRUZ, OAX: 15.21°, -94.54° 17 km
3.6 2018-12-14    06:56:36 44 km al SUROESTE de CIHUATLAN, JAL: 19.06°, -104.94° 15 km
3.7 2018-12-14    06:11:40 28 km al NORESTE de IXTLAN DEL RIO, NAY: 21.25°, -104.23° 26 km
3.3 2018-12-14    06:10:31 28 km al NORTE de COYUCA DE BENITEZ, GRO: 17.26°, -100.13° 12 km
3.0 2018-12-14    06:02:00 32 km al SURESTE de CASIMIRO CASTILLO, JAL: 19.39°, -104.24° 8 km
3.7 2018-12-14    05:53:41 1 km al SUROESTE de PINOTEPA NACIONAL, OAX: 16.34°, -98.06° 15 km
3.7 2018-12-14    05:50:15 31 km al SUROESTE de PETATLAN, GRO: 17.27°, -101.36° 15 km
3.3 2018-12-14    05:44:55 16 km al SUROESTE de PINOTEPA NACIONAL, OAX: 16.23°, -98.15° 13 km
3.6 2018-12-14    05:39:20 71 km al SUR de SALINA CRUZ, OAX: 15.56°, -95.06° 16 km
3.9 2018-12-14    04:36:22 126 km al SURESTE de SALINA CRUZ, OAX: 15.19°, -94.61° 22 km
3.5 2018-12-14    04:28:33 25 km al OESTE de STA MARIA ATZOMPA, OAX: 17.10°, -97.02° 5 km
3.4 2018-12-14    04:19:41 49 km al SUROESTE de OMETEPEC, GRO: 16.26°, -98.54° 15 km
3.8 2018-12-14    04:04:47 40 km al SURESTE de SALINA CRUZ, OAX: 15.87°, -95.01° 18 km
4.2 2018-12-14    03:54:04 147 km al SUROESTE de MAPASTEPEC, CHIS: 14.24°, -93.48° 10 km
3.8 2018-12-14    03:50:47 87 km al SUR de SALINA CRUZ, OAX: 15.39°, -95.15° 13 km
4.2 2018-12-14    03:41:17 20 km al SURESTE de RIO GRANDE, OAX: 15.90°, -97.29° 8 km
3.7 2018-12-14    03:17:35 69 km al OESTE de TEHUANTEPEC, OAX: 16.36°, -95.89° 73 km
3.6 2018-12-14    03:08:49 18 km al SURESTE de PINOTEPA NACIONAL, OAX: 16.24°, -97.92° 21 km
3.5 2018-12-14    02:00:47 23 km al NOROESTE de RIO GRANDE, OAX: 16.17°, -97.58° 12 km
3.9 2018-12-14    01:57:59 12 km al NORTE de TEHUANTEPEC, OAX: 16.43°, -95.25° 8 km
3.4 2018-12-14    00:33:50 29 km al SUROESTE de RIO GRANDE, OAX: 15.86°, -97.65° 29 km
3.7 2018-12-14    00:29:58 94 km al SURESTE de SALINA CRUZ, OAX: 15.43°, -94.78° 17 km
3.8 2018-12-14    00:27:54 39 km al SUR de SALINA CRUZ, OAX: 15.83°, -95.22° 10 km
4.2 2018-12-14    00:17:25 18 km al SUROESTE de MAPASTEPEC, CHIS: 15.35°, -93.03° 99 km

Sismo de magnitud menor de 4.0

Sismo de magnitud entre 4.0 y 5.9

Sismo de magnitud igual o mayor de 6.0

Si deseas más información,
consulta nuestro

Catálogo de sismos